Time;durP1;ratioP1;P1;durP2;ratioP2;P2;SDS_P1;SDS_P2;PMS_P1;PMS_P2;Temp;Humidity;BMP_temperature;BMP_pressure;BME280_temperature;BME280_humidity;BME280_pressure;Samples;Min_cycle;Max_cycle;Signal;HPM_P1;HPM_P2
2022/03/29 00:00:36;;;;;;;17.33;13.90;;;15.70;1.00;;;;;;5050243;28;20021;-93
2022/03/29 00:03:02;;;;;;;18.25;13.82;;;15.70;1.00;;;;;;5052038;28;20041;-93
2022/03/29 00:05:28;;;;;;;17.45;14.00;;;15.60;1.00;;;;;;5049451;28;20021;-92
2022/03/29 00:07:53;;;;;;;17.77;13.77;;;15.50;1.00;;;;;;5047696;28;20378;-93
2022/03/29 00:10:19;;;;;;;16.88;13.10;;;15.40;1.00;;;;;;5050414;28;20040;-92
2022/03/29 00:12:45;;;;;;;17.02;13.75;;;15.60;1.00;;;;;;5048889;28;20033;-92
2022/03/29 00:15:11;;;;;;;16.60;13.70;;;15.50;1.00;;;;;;5052609;28;20028;-92
2022/03/29 00:17:37;;;;;;;18.10;13.65;;;15.50;1.00;;;;;;5049110;28;20033;-92
2022/03/29 00:20:04;;;;;;;15.40;13.77;;;15.40;1.00;;;;;;5050312;28;20025;-92
2022/03/29 00:22:29;;;;;;;15.95;13.52;;;15.30;1.00;;;;;;5051317;28;20075;-92
2022/03/29 00:24:55;;;;;;;19.38;14.18;;;15.20;1.00;;;;;;5053517;28;20112;-92
2022/03/29 00:27:21;;;;;;;15.32;13.50;;;15.10;1.00;;;;;;5053966;28;20036;-92
2022/03/29 00:29:47;;;;;;;17.15;14.40;;;15.10;1.00;;;;;;5054300;28;20029;-92
2022/03/29 00:32:13;;;;;;;18.25;13.80;;;15.10;1.00;;;;;;5054247;28;20397;-92
2022/03/29 00:34:40;;;;;;;16.45;13.30;;;15.00;1.00;;;;;;5052573;28;20032;-92
2022/03/29 00:37:06;;;;;;;15.80;13.32;;;15.00;1.00;;;;;;5052983;28;20544;-93
2022/03/29 00:39:32;;;;;;;17.60;13.95;;;14.90;1.00;;;;;;5053187;28;20053;-92
2022/03/29 00:41:59;;;;;;;18.00;14.65;;;15.00;1.00;;;;;;5056977;28;20033;-92
2022/03/29 00:44:35;;;;;;;19.42;13.52;;;15.10;1.00;;;;;;5054492;28;20029;-92
2022/03/29 00:47:02;;;;;;;17.85;13.48;;;15.10;1.00;;;;;;5053712;28;20488;-93
2022/03/29 00:49:28;;;;;;;18.48;14.43;;;14.90;1.00;;;;;;5052969;28;20508;-92
2022/03/29 00:52:01;;;;;;;18.23;14.27;;;14.90;1.00;;;;;;5054089;28;20496;-93
2022/03/29 00:54:32;;;;;;;18.80;15.20;;;14.80;1.00;;;;;;5052888;28;20043;-92
2022/03/29 00:57:02;;;;;;;18.05;14.30;;;14.80;1.00;;;;;;5051197;28;20476;-93
2022/03/29 00:59:29;;;;;;;15.15;13.45;;;14.80;1.00;;;;;;5059064;28;20036;-92
2022/03/29 01:01:57;;;;;;;17.73;14.27;;;14.70;1.00;;;;;;5048092;28;20033;-92
2022/03/29 01:04:23;;;;;;;20.13;14.88;;;14.70;1.00;;;;;;5051607;28;20044;-92
2022/03/29 01:06:48;;;;;;;18.42;14.18;;;14.70;1.00;;;;;;5051849;28;20052;-92
2022/03/29 01:09:14;;;;;;;17.23;14.05;;;14.80;1.00;;;;;;5052932;28;20049;-93
2022/03/29 01:11:41;;;;;;;18.88;14.85;;;14.90;1.00;;;;;;5052504;28;20067;-92
2022/03/29 01:14:07;;;;;;;18.40;15.38;;;15.00;1.00;;;;;;5052333;28;20104;-92
2022/03/29 01:19:22;;;;;;;17.65;14.88;;;15.00;1.00;;;;;;5052154;28;20044;-92
2022/03/29 01:21:59;;;;;;;20.33;14.02;;;14.90;1.00;;;;;;5052763;28;20033;-93
2022/03/29 01:24:26;;;;;;;20.60;15.43;;;14.80;1.00;;;;;;5052301;28;20068;-92
2022/03/29 01:26:53;;;;;;;18.55;14.95;;;14.60;1.00;;;;;;5053611;28;20029;-92
2022/03/29 01:32:18;;;;;;;17.77;14.07;;;14.40;1.00;;;;;;5888772;22;20144;-92
2022/03/29 01:34:44;;;;;;;19.13;14.20;;;14.40;1.00;;;;;;5065243;22;20450;-92
2022/03/29 01:37:10;;;;;;;20.52;14.65;;;14.20;1.00;;;;;;5014039;28;20022;-93
2022/03/29 01:39:37;;;;;;;21.10;15.20;;;14.30;1.00;;;;;;5009735;28;20030;-92
2022/03/29 01:42:04;;;;;;;20.90;15.07;;;14.20;1.00;;;;;;5015017;28;20030;-92
2022/03/29 01:44:30;;;;;;;20.17;14.63;;;14.20;1.00;;;;;;5013661;28;20041;-92
2022/03/29 01:46:55;;;;;;;20.25;15.40;;;14.30;1.00;;;;;;5013500;28;20026;-92
2022/03/29 01:49:21;;;;;;;19.08;15.10;;;14.30;1.00;;;;;;5013596;28;20029;-92
2022/03/29 01:51:48;;;;;;;19.05;14.88;;;14.30;1.00;;;;;;5013738;28;20017;-92
2022/03/29 01:54:13;;;;;;;19.08;14.63;;;14.40;1.00;;;;;;5015226;28;20033;-92
2022/03/29 01:56:39;;;;;;;19.00;14.73;;;14.50;1.00;;;;;;5014034;28;20026;-93
2022/03/29 01:59:07;;;;;;;18.92;15.32;;;14.50;1.00;;;;;;5013825;28;20036;-92
2022/03/29 02:01:41;;;;;;;20.08;15.27;;;14.30;1.00;;;;;;5013126;28;20460;-92
2022/03/29 02:04:07;;;;;;;18.98;14.30;;;14.30;1.00;;;;;;5013014;28;20088;-92
2022/03/29 02:06:33;;;;;;;20.75;14.93;;;14.30;1.00;;;;;;5014802;28;20453;-93
2022/03/29 02:08:59;;;;;;;20.65;14.82;;;14.20;1.00;;;;;;5014004;28;20120;-92
2022/03/29 02:11:24;;;;;;;19.50;15.38;;;14.20;1.00;;;;;;5013353;28;20109;-92
2022/03/29 02:13:50;;;;;;;22.73;15.88;;;14.40;1.00;;;;;;5012683;28;20037;-92
2022/03/29 02:16:16;;;;;;;21.13;15.88;;;14.30;1.00;;;;;;5012227;28;20126;-92
2022/03/29 02:18:41;;;;;;;20.70;16.08;;;14.10;1.00;;;;;;5013165;28;20030;-92
2022/03/29 02:21:07;;;;;;;20.27;15.25;;;14.00;1.00;;;;;;5026914;28;20041;-93
2022/03/29 02:23:33;;;;;;;21.92;15.85;;;14.00;1.00;;;;;;5013028;28;20056;-93
2022/03/29 02:25:59;;;;;;;23.05;16.40;;;14.00;1.00;;;;;;5012747;28;20032;-92
2022/03/29 02:28:25;;;;;;;20.88;15.77;;;13.90;1.00;;;;;;5013618;28;20044;-93
2022/03/29 02:30:50;;;;;;;22.75;16.00;;;14.00;1.00;;;;;;5013494;28;20097;-93
2022/03/29 02:33:16;;;;;;;21.65;15.98;;;14.00;1.00;;;;;;5008500;28;20076;-93
2022/03/29 02:35:42;;;;;;;24.17;16.42;;;13.90;1.00;;;;;;5012828;28;20053;-92
2022/03/29 02:38:07;;;;;;;22.27;15.88;;;14.10;1.00;;;;;;5013122;28;20034;-92
2022/03/29 02:40:33;;;;;;;21.55;16.58;;;14.10;1.00;;;;;;5013484;28;20519;-93
2022/03/29 02:43:00;;;;;;;19.98;15.65;;;13.90;1.00;;;;;;5012291;28;20212;-92
2022/03/29 02:45:29;;;;;;;23.00;16.15;;;14.00;1.00;;;;;;5012429;28;20455;-93
2022/03/29 02:47:58;;;;;;;23.35;16.73;;;14.10;1.00;;;;;;5012246;28;20028;-92
2022/03/29 02:50:24;;;;;;;21.08;15.77;;;14.00;1.00;;;;;;5012513;28;20030;-92
2022/03/29 02:52:59;;;;;;;22.45;16.92;;;14.00;1.00;;;;;;5012771;28;20038;-93
2022/03/29 02:55:29;;;;;;;30.83;16.67;;;14.00;1.00;;;;;;5013836;28;20386;-92
2022/03/29 02:57:56;;;;;;;21.42;15.63;;;14.00;1.00;;;;;;5012289;28;20060;-92
2022/03/29 03:00:23;;;;;;;20.33;15.40;;;14.10;1.00;;;;;;5013625;28;20498;-92
2022/03/29 03:02:50;;;;;;;21.63;16.00;;;14.00;1.00;;;;;;5012834;28;20038;-92
2022/03/29 03:05:16;;;;;;;21.30;15.82;;;13.90;1.00;;;;;;5013130;28;20026;-92
2022/03/29 03:07:43;;;;;;;24.25;16.58;;;14.00;1.00;;;;;;5013213;28;20084;-92
2022/03/29 03:10:11;;;;;;;22.52;15.85;;;13.80;1.00;;;;;;4996777;28;20026;-93
2022/03/29 03:12:38;;;;;;;20.23;16.25;;;14.00;1.00;;;;;;5008914;28;20033;-93
2022/03/29 03:15:05;;;;;;;22.25;16.70;;;13.90;1.00;;;;;;5013053;28;20052;-92
2022/03/29 03:17:32;;;;;;;25.20;17.20;;;14.00;1.00;;;;;;5012985;28;20087;-92
2022/03/29 03:19:57;;;;;;;26.38;17.95;;;13.80;1.00;;;;;;5012037;28;20025;-93
2022/03/29 03:22:23;;;;;;;22.55;16.88;;;13.80;1.00;;;;;;5012024;28;20038;-93
2022/03/29 03:24:49;;;;;;;24.75;16.80;;;13.90;1.00;;;;;;5012804;28;20531;-92
2022/03/29 03:27:16;;;;;;;23.50;17.33;;;13.80;1.00;;;;;;5013198;28;20501;-93
2022/03/29 03:29:42;;;;;;;23.10;17.25;;;13.90;1.00;;;;;;5012755;28;20033;-93
2022/03/29 03:32:08;;;;;;;25.02;18.17;;;13.80;1.00;;;;;;5012720;28;20022;-92
2022/03/29 03:34:34;;;;;;;24.20;17.15;;;13.80;1.00;;;;;;5013047;28;20054;-93
2022/03/29 03:37:03;;;;;;;25.67;17.00;;;13.80;1.00;;;;;;5012887;28;20041;-91
2022/03/29 03:39:29;;;;;;;23.88;17.02;;;13.70;1.00;;;;;;5013706;28;20060;-93
2022/03/29 03:41:55;;;;;;;24.02;17.95;;;13.70;1.00;;;;;;5011580;28;20103;-93
2022/03/29 03:44:22;;;;;;;26.35;17.98;;;13.80;1.00;;;;;;5011055;28;20033;-92
2022/03/29 03:46:48;;;;;;;21.98;17.15;;;13.70;1.00;;;;;;5011227;28;20064;-93
2022/03/29 03:49:14;;;;;;;23.00;16.73;;;13.70;1.00;;;;;;5011184;28;20050;-93
2022/03/29 03:51:40;;;;;;;25.73;17.08;;;13.70;1.00;;;;;;5013250;28;20029;-92
2022/03/29 03:54:06;;;;;;;22.95;16.80;;;13.60;1.00;;;;;;5011973;28;20032;-92
2022/03/29 03:56:32;;;;;;;24.83;17.38;;;13.60;1.00;;;;;;5013093;28;20033;-92
2022/03/29 03:58:58;;;;;;;23.90;17.70;;;13.60;1.00;;;;;;5017124;28;20021;-92
2022/03/29 04:01:23;;;;;;;23.08;16.73;;;13.70;1.00;;;;;;5016524;28;20510;-92
2022/03/29 04:03:49;;;;;;;22.95;17.58;;;13.50;1.00;;;;;;5016359;28;20076;-93
2022/03/29 04:06:15;;;;;;;24.65;17.95;;;13.40;1.00;;;;;;5011565;28;20128;-92
2022/03/29 04:08:40;;;;;;;21.42;16.70;;;13.40;1.00;;;;;;5015270;28;20026;-92
2022/03/29 04:11:09;;;;;;;25.48;17.75;;;13.40;1.00;;;;;;5015298;28;20483;-92
2022/03/29 04:13:34;;;;;;;22.23;16.95;;;13.30;1.00;;;;;;5015688;28;20156;-92
2022/03/29 04:16:01;;;;;;;21.63;17.05;;;13.20;1.00;;;;;;5016303;28;20117;-92
2022/03/29 04:18:27;;;;;;;25.38;16.77;;;13.10;1.00;;;;;;5032299;28;20105;-92
2022/03/29 04:20:53;;;;;;;23.30;17.95;;;13.20;1.00;;;;;;5016256;28;20125;-93
2022/03/29 04:23:19;;;;;;;23.35;16.70;;;13.20;1.00;;;;;;5015378;28;20386;-92
2022/03/29 04:25:45;;;;;;;24.30;17.00;;;13.40;1.00;;;;;;5014943;28;20053;-93
2022/03/29 04:28:10;;;;;;;23.23;17.60;;;13.10;1.00;;;;;;5016142;28;20599;-92
2022/03/29 04:30:36;;;;;;;25.45;17.40;;;13.20;1.00;;;;;;5015992;28;20033;-93
2022/03/29 04:33:02;;;;;;;26.13;16.25;;;13.30;1.00;;;;;;5014237;28;20517;-92
2022/03/29 04:35:27;;;;;;;26.73;17.85;;;13.20;1.00;;;;;;5015490;28;20025;-92
2022/03/29 04:37:53;;;;;;;25.27;17.63;;;13.40;1.00;;;;;;5015187;28;20061;-92
2022/03/29 04:40:20;;;;;;;24.50;16.60;;;13.20;1.00;;;;;;5015955;28;20053;-92
2022/03/29 04:42:47;;;;;;;23.55;16.75;;;13.10;1.00;;;;;;5014486;28;20116;-92
2022/03/29 04:45:15;;;;;;;25.48;17.70;;;13.10;1.00;;;;;;5014890;28;20876;-93
2022/03/29 04:47:42;;;;;;;24.73;16.95;;;13.00;1.00;;;;;;5014219;28;20026;-92
2022/03/29 04:50:09;;;;;;;24.80;17.40;;;13.00;1.00;;;;;;5014375;28;20029;-92
2022/03/29 04:52:35;;;;;;;22.77;16.73;;;12.90;1.00;;;;;;5014616;28;20026;-92
2022/03/29 04:55:01;;;;;;;28.17;17.17;;;13.00;1.00;;;;;;5014943;28;20851;-92
2022/03/29 04:57:26;;;;;;;30.08;17.52;;;13.00;1.00;;;;;;5016217;28;20026;-92
2022/03/29 04:59:52;;;;;;;28.83;18.45;;;13.00;1.00;;;;;;5015339;28;20038;-92
2022/03/29 05:02:18;;;;;;;24.63;17.52;;;13.00;1.00;;;;;;5015194;28;20030;-92
2022/03/29 05:04:44;;;;;;;24.23;18.05;;;12.90;1.00;;;;;;5015537;28;20050;-92
2022/03/29 05:07:10;;;;;;;24.45;16.95;;;13.00;1.00;;;;;;5014168;28;20025;-92
2022/03/29 05:09:36;;;;;;;25.95;17.35;;;13.10;1.00;;;;;;5016623;28;20101;-93
2022/03/29 05:12:02;;;;;;;23.55;17.20;;;13.00;1.00;;;;;;5014591;28;20120;-92
2022/03/29 05:14:28;;;;;;;24.05;16.73;;;13.10;1.00;;;;;;5014721;28;20025;-92
2022/03/29 05:16:54;;;;;;;22.35;16.55;;;13.10;1.00;;;;;;5015624;28;20025;-93
2022/03/29 05:19:19;;;;;;;36.47;17.83;;;13.00;1.00;;;;;;5015496;28;20116;-92
2022/03/29 05:21:45;;;;;;;25.33;17.35;;;13.20;1.00;;;;;;5015003;28;20108;-92
2022/03/29 05:24:11;;;;;;;23.95;16.23;;;13.10;1.00;;;;;;5014119;28;20105;-92
2022/03/29 05:26:37;;;;;;;24.20;17.05;;;12.80;1.00;;;;;;5014901;28;20064;-93
2022/03/29 05:29:03;;;;;;;23.08;16.90;;;13.00;1.00;;;;;;5013671;28;20037;-92
2022/03/29 05:31:29;;;;;;;26.02;17.63;;;13.20;1.00;;;;;;5014997;28;20022;-92
2022/03/29 05:33:55;;;;;;;26.85;17.85;;;13.10;1.00;;;;;;5013663;28;20061;-93
2022/03/29 05:36:20;;;;;;;24.17;16.92;;;13.10;1.00;;;;;;5014351;28;20034;-92
2022/03/29 05:38:51;;;;;;;26.27;17.45;;;12.90;1.00;;;;;;5015390;28;20030;-92
2022/03/29 05:41:21;;;;;;;23.08;17.67;;;13.10;1.00;;;;;;5014428;28;20505;-92
2022/03/29 05:43:48;;;;;;;26.48;17.20;;;13.10;1.00;;;;;;5014519;28;20121;-92
2022/03/29 05:48:59;;;;;;;26.05;17.25;;;13.20;1.00;;;;;;5015190;28;20044;-92
2022/03/29 05:51:26;;;;;;;24.77;16.58;;;13.40;1.00;;;;;;5014983;28;20026;-92
2022/03/29 05:53:53;;;;;;;25.88;17.67;;;13.20;1.00;;;;;;5014619;28;20026;-92
2022/03/29 05:56:20;;;;;;;26.00;17.60;;;13.30;1.00;;;;;;5013445;28;20032;-92
2022/03/29 05:58:46;;;;;;;27.65;17.60;;;13.30;1.00;;;;;;5013584;28;20053;-92
2022/03/29 06:01:12;;;;;;;26.80;16.75;;;13.30;1.00;;;;;;5015074;28;20025;-92
2022/03/29 06:03:38;;;;;;;25.25;18.95;;;13.70;1.00;;;;;;5010591;28;20042;-92
2022/03/29 06:06:03;;;;;;;25.65;18.80;;;13.40;1.00;;;;;;5013466;28;20050;-82
2022/03/29 06:08:30;;;;;;;25.75;17.27;;;13.60;1.00;;;;;;5012884;28;20168;-81
2022/03/29 06:10:56;;;;;;;28.20;18.17;;;13.80;1.00;;;;;;5012109;28;20022;-81
2022/03/29 06:13:22;;;;;;;28.05;16.60;;;13.90;1.00;;;;;;5012447;28;20141;-81
2022/03/29 06:15:47;;;;;;;23.55;17.35;;;14.00;1.00;;;;;;5012891;28;20018;-82
2022/03/29 06:18:13;;;;;;;26.95;17.98;;;14.10;1.00;;;;;;5012608;28;20513;-82
2022/03/29 06:20:39;;;;;;;26.17;17.35;;;14.20;1.00;;;;;;5012500;28;20374;-82
2022/03/29 06:23:04;;;;;;;30.63;17.77;;;14.20;1.00;;;;;;5012184;28;20565;-81
2022/03/29 06:25:32;;;;;;;31.27;17.13;;;14.30;1.00;;;;;;5011995;28;20396;-82
2022/03/29 06:27:58;;;;;;;26.88;18.15;;;14.30;1.00;;;;;;5012272;28;20386;-82
2022/03/29 06:30:24;;;;;;;24.85;18.02;;;14.30;1.00;;;;;;5012623;28;20021;-82
2022/03/29 06:32:53;;;;;;;29.20;18.27;;;14.20;1.00;;;;;;5011866;28;20544;-82
2022/03/29 06:35:28;;;;;;;26.35;17.48;;;14.20;1.00;;;;;;5011495;28;20033;-82
2022/03/29 06:37:58;;;;;;;28.38;18.08;;;14.30;1.00;;;;;;5012119;28;20517;-82
2022/03/29 06:40:25;;;;;;;22.45;17.13;;;14.30;1.00;;;;;;5011992;28;20486;-82
2022/03/29 06:42:51;;;;;;;26.63;17.92;;;14.30;1.00;;;;;;5012040;28;20498;-82
2022/03/29 06:45:17;;;;;;;30.13;18.15;;;14.30;1.00;;;;;;5012021;28;20045;-82
2022/03/29 06:47:43;;;;;;;24.33;17.10;;;14.40;1.00;;;;;;5011666;28;20026;-82
2022/03/29 06:50:10;;;;;;;29.10;17.40;;;14.40;1.00;;;;;;5011829;28;20030;-82
2022/03/29 06:52:38;;;;;;;26.92;18.63;;;14.50;1.00;;;;;;5011978;28;20021;-81
2022/03/29 06:55:05;;;;;;;25.40;18.00;;;14.50;1.00;;;;;;5011420;28;20025;-81
2022/03/29 06:57:31;;;;;;;24.83;17.98;;;14.60;1.00;;;;;;5012527;28;20041;-82
2022/03/29 06:59:56;;;;;;;26.30;18.23;;;14.60;1.00;;;;;;5011892;28;20030;-81
2022/03/29 07:02:22;;;;;;;26.42;17.10;;;14.70;1.00;;;;;;5011412;28;20045;-81
2022/03/29 07:04:48;;;;;;;27.08;18.08;;;14.70;1.00;;;;;;5011626;28;20512;-82
2022/03/29 07:07:13;;;;;;;30.60;18.23;;;14.80;1.00;;;;;;5011508;28;20398;-82
2022/03/29 07:12:30;;;;;;;22.70;16.75;;;14.90;1.00;;;;;;4990451;28;20034;-82
2022/03/29 07:14:57;;;;;;;27.95;18.83;;;15.00;1.00;;;;;;4989065;28;20041;-82
2022/03/29 07:17:23;;;;;;;30.58;17.50;;;15.00;1.00;;;;;;4989453;28;20034;-81
2022/03/29 07:19:49;;;;;;;25.10;17.38;;;15.10;1.00;;;;;;4989168;28;20057;-81
2022/03/29 07:22:14;;;;;;;22.48;17.23;;;15.20;1.00;;;;;;4989814;28;20100;-82
2022/03/29 07:24:40;;;;;;;23.95;17.27;;;15.40;99.90;;;;;;4990427;28;20106;-82
2022/03/29 07:27:07;;;;;;;28.38;16.85;;;15.40;1.00;;;;;;4984912;28;20038;-82
2022/03/29 07:29:33;;;;;;;21.83;16.38;;;15.40;1.00;;;;;;4985592;28;20069;-82
2022/03/29 07:31:59;;;;;;;22.92;15.98;;;15.50;1.00;;;;;;4984760;28;20082;-81
2022/03/29 07:34:25;;;;;;;24.40;16.80;;;15.70;1.00;;;;;;4987762;28;20046;-81
2022/03/29 07:36:51;;;;;;;22.95;16.25;;;15.90;1.00;;;;;;4986479;28;20482;-82
2022/03/29 07:39:17;;;;;;;21.40;16.20;;;15.90;1.00;;;;;;4985836;28;20037;-81
2022/03/29 07:41:43;;;;;;;20.45;16.30;;;15.50;1.00;;;;;;4985255;28;20031;-82
2022/03/29 07:44:08;;;;;;;23.13;16.70;;;15.50;1.00;;;;;;4984894;28;20106;-82
2022/03/29 07:46:34;;;;;;;22.52;16.55;;;15.80;1.00;;;;;;4970123;28;20479;-82
2022/03/29 07:49:00;;;;;;;20.75;16.15;;;15.70;1.00;;;;;;4994942;28;20046;-82
2022/03/29 07:51:25;;;;;;;22.83;16.05;;;15.90;1.00;;;;;;5011527;28;20057;-82
2022/03/29 07:53:51;;;;;;;21.45;15.93;;;15.80;1.00;;;;;;5010972;28;20034;-82
2022/03/29 07:56:17;;;;;;;19.73;16.20;;;15.90;1.00;;;;;;5010872;28;20067;-82
2022/03/29 07:58:43;;;;;;;19.80;15.75;;;16.10;1.00;;;;;;5010872;28;20068;-82
2022/03/29 08:01:09;;;;;;;23.98;16.05;;;16.30;1.00;;;;;;5011125;28;20034;-81
2022/03/29 08:03:35;;;;;;;20.98;15.60;;;16.40;99.90;;;;;;5011491;28;20559;-82
2022/03/29 08:06:01;;;;;;;21.23;15.52;;;16.60;1.00;;;;;;5010926;28;20101;-82
2022/03/29 08:08:28;;;;;;;21.20;16.02;;;16.80;1.00;;;;;;5011138;28;20398;-82
2022/03/29 08:10:54;;;;;;;21.40;15.70;;;17.10;99.90;;;;;;5009510;28;20494;-82
2022/03/29 08:13:21;;;;;;;17.80;15.52;;;17.20;99.90;;;;;;5010810;28;20034;-82
2022/03/29 08:15:49;;;;;;;16.60;14.60;;;17.10;99.90;;;;;;5010906;28;20112;-82
2022/03/29 08:18:16;;;;;;;18.38;15.02;;;17.20;1.00;;;;;;5010777;28;20403;-82
2022/03/29 08:20:43;;;;;;;19.27;15.18;;;17.20;1.00;;;;;;5010510;28;20037;-82
2022/03/29 08:23:10;;;;;;;20.25;15.50;;;17.20;1.00;;;;;;5010653;28;20403;-81
2022/03/29 08:25:37;;;;;;;18.27;14.98;;;17.10;1.00;;;;;;5010863;28;20022;-82
2022/03/29 08:28:04;;;;;;;19.08;15.50;;;17.30;1.00;;;;;;5011339;28;20038;-82
2022/03/29 08:30:30;;;;;;;21.27;15.50;;;16.90;1.00;;;;;;5011053;28;20026;-81
2022/03/29 08:32:57;;;;;;;22.02;16.75;;;16.80;1.00;;;;;;5010415;28;20383;-82
2022/03/29 08:35:24;;;;;;;22.08;16.13;;;16.90;1.00;;;;;;5010501;28;20049;-82
2022/03/29 08:37:50;;;;;;;21.48;15.75;;;16.90;1.00;;;;;;5011038;28;20025;-82
2022/03/29 08:40:26;;;;;;;20.95;15.65;;;17.10;99.90;;;;;;5010722;28;20417;-82
2022/03/29 08:42:54;;;;;;;20.15;15.68;;;17.10;1.00;;;;;;5012646;28;20030;-82
2022/03/29 08:45:26;;;;;;;20.33;15.93;;;17.40;1.00;;;;;;5014519;28;20022;-82
2022/03/29 08:47:56;;;;;;;20.35;15.00;;;17.60;1.00;;;;;;5014046;28;20438;-83
2022/03/29 08:50:23;;;;;;;21.90;15.20;;;17.70;99.90;;;;;;5014077;28;20030;-81
2022/03/29 08:52:51;;;;;;;21.48;15.48;;;17.20;1.00;;;;;;5013766;28;20482;-81
2022/03/29 08:55:17;;;;;;;19.10;15.13;;;17.10;1.00;;;;;;5013962;28;20045;-82
2022/03/29 08:57:43;;;;;;;21.83;16.33;;;17.30;99.90;;;;;;5014265;28;20079;-81
2022/03/29 09:00:09;;;;;;;20.48;15.82;;;16.90;99.90;;;;;;5014244;28;20033;-81
2022/03/29 09:02:36;;;;;;;24.25;16.40;;;16.70;99.90;;;;;;5013849;28;20037;-82
2022/03/29 09:05:30;;;;;;;20.27;15.60;;;16.70;1.00;;;;;;5013190;28;20029;-82
2022/03/29 09:08:02;;;;;;;21.13;16.30;;;16.50;1.00;;;;;;5012363;28;20045;-80
2022/03/29 09:10:48;;;;;;;21.92;16.35;;;16.50;1.00;;;;;;5013796;28;20057;-83
2022/03/29 09:13:27;;;;;;;21.38;15.85;;;16.50;1.00;;;;;;4998101;28;20033;-82
2022/03/29 09:15:55;;;;;;;21.50;16.27;;;16.50;1.00;;;;;;5013922;28;20022;-82
2022/03/29 09:18:22;;;;;;;19.65;15.32;;;16.70;1.00;;;;;;5013725;28;20433;-82
2022/03/29 09:21:11;;;;;;;20.23;15.80;;;16.60;1.00;;;;;;5013408;28;20452;-83
2022/03/29 09:23:37;;;;;;;18.70;15.35;;;16.70;1.00;;;;;;5011904;28;20458;-82
2022/03/29 09:26:04;;;;;;;20.33;15.43;;;16.60;1.00;;;;;;5013288;28;20577;-83
2022/03/29 09:28:37;;;;;;;18.08;15.23;;;16.70;99.90;;;;;;5013104;28;20478;-82
2022/03/29 09:31:22;;;;;;;18.55;14.57;;;16.80;1.00;;;;;;5013185;28;20088;-83
2022/03/29 09:33:48;;;;;;;18.63;15.57;;;16.80;1.00;;;;;;5009486;28;20101;-83
2022/03/29 09:36:20;;;;;;;20.25;15.30;;;16.90;1.00;;;;;;5013912;28;20041;-84
2022/03/29 09:38:48;;;;;;;20.88;14.77;;;17.00;99.90;;;;;;5013326;28;20029;-83
2022/03/29 09:41:21;;;;;;;23.52;15.93;;;17.20;1.00;;;;;;5013102;28;20080;-84
2022/03/29 09:44:10;;;;;;;21.52;14.98;;;17.70;99.90;;;;;;5012098;28;20068;-85
2022/03/29 09:46:52;;;;;;;20.77;15.07;;;17.90;1.00;;;;;;5013280;28;20016;-85
2022/03/29 09:49:20;;;;;;;22.15;15.35;;;17.80;99.90;;;;;;4998597;28;20026;-85
2022/03/29 09:51:46;;;;;;;19.85;15.20;;;17.80;99.90;;;;;;5013557;28;20026;-85
2022/03/29 09:54:12;;;;;;;16.35;14.32;;;17.80;99.90;;;;;;5013582;28;20026;-83
2022/03/29 09:56:38;;;;;;;21.02;15.02;;;17.70;99.90;;;;;;5012723;28;20032;-82
2022/03/29 09:59:17;;;;;;;19.48;15.30;;;17.70;99.90;;;;;;5012766;28;20033;-82
2022/03/29 10:01:55;;;;;;;19.80;14.95;;;17.60;99.90;;;;;;5012551;28;20072;-83
2022/03/29 10:04:23;;;;;;;20.30;14.60;;;18.10;1.00;;;;;;4998284;28;20124;-83
2022/03/29 10:06:52;;;;;;;18.02;16.02;;;18.60;99.90;;;;;;5012820;28;20028;-84
2022/03/29 10:09:29;;;;;;;18.75;14.13;;;19.60;99.90;;;;;;5012320;28;20030;-81
2022/03/29 10:12:05;;;;;;;20.10;16.02;;;20.00;99.90;;;;;;5012171;28;20026;-83
2022/03/29 10:14:41;;;;;;;27.65;18.55;;;21.10;99.90;;;;;;5012676;28;20054;-83
2022/03/29 10:17:08;;;;;;;19.17;14.75;;;22.40;99.90;;;;;;5011918;28;20028;-83
2022/03/29 10:19:36;;;;;;;18.60;14.35;;;21.80;99.90;;;;;;5012669;28;20042;-82
2022/03/29 10:22:04;;;;;;;19.85;14.75;;;21.80;99.90;;;;;;5012196;28;20474;-81
2022/03/29 10:24:30;;;;;;;16.83;14.18;;;20.30;99.90;;;;;;5013005;28;20026;-83
2022/03/29 10:26:59;;;;;;;15.02;13.52;;;20.10;99.90;;;;;;5012259;28;20022;-84
2022/03/29 10:29:25;;;;;;;22.08;14.55;;;20.30;99.90;;;;;;5012614;28;20022;-83
2022/03/29 10:32:02;;;;;;;16.20;14.07;;;20.70;99.90;;;;;;5011941;28;20375;-83
2022/03/29 10:34:39;;;;;;;17.83;13.50;;;20.40;99.90;;;;;;5012347;28;20037;-83
2022/03/29 10:37:18;;;;;;;15.98;14.13;;;20.20;99.90;;;;;;5012204;28;20486;-83
2022/03/29 10:39:48;;;;;;;18.75;13.95;;;20.20;99.90;;;;;;5008633;28;20022;-83
2022/03/29 10:42:39;;;;;;;18.85;14.30;;;20.20;99.90;;;;;;5011900;28;20062;-84
2022/03/29 10:45:14;;;;;;;19.08;14.07;;;20.90;99.90;;;;;;5011770;28;20034;-84
2022/03/29 10:47:41;;;;;;;18.10;13.52;;;20.90;99.90;;;;;;5003957;28;20367;-83
2022/03/29 10:50:10;;;;;;;14.55;12.45;;;20.60;99.90;;;;;;5011904;28;20033;-83
2022/03/29 10:52:42;;;;;;;19.25;13.70;;;20.40;99.90;;;;;;5006533;28;20502;-83
2022/03/29 10:55:30;;;;;;;17.73;13.05;;;20.20;99.90;;;;;;5010332;28;20037;-82
2022/03/29 10:58:06;;;;;;;24.02;14.13;;;21.20;99.90;;;;;;5009670;28;20038;-83
2022/03/29 11:00:33;;;;;;;20.60;13.10;;;22.10;99.90;;;;;;5011268;28;20022;-82
2022/03/29 11:03:22;;;;;;;20.08;14.00;;;21.80;99.90;;;;;;5011341;28;20046;-84
2022/03/29 11:06:03;;;;;;;19.10;12.98;;;23.50;99.90;;;;;;5010150;28;20034;-84
2022/03/29 11:08:30;;;;;;;19.17;13.23;;;24.40;99.90;;;;;;5011443;28;20030;-81
2022/03/29 11:10:58;;;;;;;15.50;12.48;;;23.80;99.90;;;;;;5011507;28;20409;-87
2022/03/29 11:13:37;;;;;;;15.70;12.18;;;22.00;99.90;;;;;;5012306;28;20036;-84
2022/03/29 11:16:25;;;;;;;19.05;11.00;;;21.00;99.90;;;;;;5011685;28;20875;-83
2022/03/29 11:18:52;;;;;;;17.00;10.40;;;19.90;99.90;;;;;;5009293;28;20032;-83
2022/03/29 11:21:36;;;;;;;17.55;10.45;;;19.50;99.90;;;;;;5011834;28;20029;-83
2022/03/29 11:24:04;;;;;;;15.00;10.27;;;19.10;99.90;;;;;;5011182;28;20128;-83
2022/03/29 11:26:30;;;;;;;17.30;10.52;;;19.00;99.90;;;;;;5011378;28;20529;-84
2022/03/29 11:28:58;;;;;;;16.10;10.70;;;19.30;99.90;;;;;;5011095;28;20026;-85
2022/03/29 11:31:36;;;;;;;15.43;9.85;;;19.60;99.90;;;;;;5011302;28;20393;-83
2022/03/29 11:34:02;;;;;;;13.65;10.20;;;19.60;99.90;;;;;;5010972;28;20533;-83
2022/03/29 11:36:28;;;;;;;13.45;10.30;;;20.10;99.90;;;;;;5012728;28;20029;-83
2022/03/29 11:38:53;;;;;;;14.85;9.38;;;20.40;99.90;;;;;;5011086;28;20028;-83
2022/03/29 11:41:22;;;;;;;17.83;9.43;;;20.10;99.90;;;;;;5010934;28;20030;-83
2022/03/29 11:43:56;;;;;;;16.27;9.95;;;19.90;99.90;;;;;;5009595;28;20376;-83
2022/03/29 11:46:22;;;;;;;20.45;10.95;;;20.10;99.90;;;;;;5011048;28;20022;-83
2022/03/29 11:48:50;;;;;;;12.50;9.68;;;20.90;99.90;;;;;;5011397;28;20026;-83
2022/03/29 11:51:16;;;;;;;16.92;9.60;;;20.50;99.90;;;;;;5010549;28;20510;-83
2022/03/29 11:53:42;;;;;;;23.08;9.98;;;20.60;99.90;;;;;;5010728;28;20022;-83
2022/03/29 11:56:19;;;;;;;13.88;9.10;;;21.20;99.90;;;;;;5011295;28;20029;-83
2022/03/29 11:58:53;;;;;;;14.93;9.98;;;21.60;1.00;;;;;;5011024;28;20017;-83
2022/03/29 12:01:27;;;;;;;16.17;9.60;;;21.50;99.90;;;;;;4995083;28;20030;-83
2022/03/29 12:04:00;;;;;;;16.08;9.30;;;21.30;99.90;;;;;;5010894;28;20417;-84
2022/03/29 12:06:29;;;;;;;13.55;8.73;;;21.50;99.90;;;;;;5010501;28;20037;-83
2022/03/29 12:08:57;;;;;;;13.30;9.23;;;22.10;99.90;;;;;;5010723;28;20394;-83
2022/03/29 12:11:27;;;;;;;17.48;8.43;;;22.20;99.90;;;;;;5010798;28;20190;-83
2022/03/29 12:14:10;;;;;;;15.48;8.85;;;21.90;99.90;;;;;;5011068;28;20022;-83
2022/03/29 12:16:41;;;;;;;14.90;8.88;;;22.20;99.90;;;;;;5010961;28;20026;-83
2022/03/29 12:19:09;;;;;;;16.08;9.50;;;21.40;99.90;;;;;;5015034;28;20032;-83
2022/03/29 12:21:35;;;;;;;15.82;9.48;;;21.00;99.90;;;;;;5015351;28;20033;-83
2022/03/29 12:24:04;;;;;;;15.15;8.85;;;21.20;99.90;;;;;;5014497;28;20045;-83
2022/03/29 12:26:31;;;;;;;18.35;9.70;;;20.70;99.90;;;;;;5014300;28;20018;-82
2022/03/29 12:28:58;;;;;;;18.02;8.95;;;20.80;99.90;;;;;;5014484;28;20116;-83
2022/03/29 12:31:27;;;;;;;19.00;9.32;;;20.80;99.90;;;;;;5015127;28;20026;-83
2022/03/29 12:33:54;;;;;;;19.42;9.10;;;20.40;99.90;;;;;;5014279;28;20046;-83
2022/03/29 12:36:20;;;;;;;13.55;8.95;;;20.40;99.90;;;;;;5014608;28;20042;-83
2022/03/29 12:38:52;;;;;;;16.88;8.30;;;20.20;99.90;;;;;;5012978;28;20021;-83
2022/03/29 12:41:56;;;;;;;14.68;9.20;;;20.20;99.90;;;;;;5013888;28;20033;-82
2022/03/29 12:44:31;;;;;;;20.35;9.30;;;20.80;99.90;;;;;;4949632;29;20556;-83
2022/03/29 12:46:57;;;;;;;18.20;8.90;;;20.40;99.90;;;;;;4949659;29;20039;-83
2022/03/29 12:49:24;;;;;;;17.35;9.20;;;20.20;99.90;;;;;;4952118;29;20236;-83
2022/03/29 12:51:55;;;;;;;16.70;8.77;;;20.30;99.90;;;;;;4950728;29;20042;-83